Capitol Logistics 266




KCLT
Charlotte/Douglas International Airport
Charlotte, North Carolina
KRIV
March Air Reserve Base
Riverside, California

Activity Log

Date Flight Route Aircraft Duration
05/13/2021 CPX266 JOJJO4 NOONN BNA J46 TUL PNH J78 DRK J134 TRM ARKOE1 A30F 4h 37m
04/16/2020 CPX266 BOBZY4 BOBZY HARAY GQO J118 MEM J66 LIT J14 PNH J6 DRK J231 HIPPI J10 CADEZ TRM ARKOE1 B763 5h 20m

Route Details

Aircraft Information
Primary: Boeing 767-300BDSF
Backup: Airbus A300-600F
Route Data
Distance: 1804nm
Duration: 4h 45m
Recm'd Route: BOBZY4 BNA J46 TUL PNH J78 DRK J134 TRM ARKOE1
Origin Wx: KCLT 020352Z 33005KT 10SM FEW060 SCT250 24/19 A2996 RMK AO2 SLP133 T02390194
Dest. Wx: KRIV 020358Z AUTO 30004KT 10SM CLR 26/05 A3005 RMK AO2 SLP161 T02630047
Notes: